sensor_id;sensor_type;location;lat;lon;timestamp;P1;durP1;ratioP1;P2;durP2;ratioP2
15358;SDS011;7779;49.596;11.070;2022-10-01T00:01:09;2.63;;;2.33;;
15358;SDS011;7779;49.596;11.070;2022-10-01T00:03:42;3.07;;;2.63;;
15358;SDS011;7779;49.596;11.070;2022-10-01T00:08:45;3.90;;;2.33;;
15358;SDS011;7779;49.596;11.070;2022-10-01T00:11:14;3.10;;;2.57;;
15358;SDS011;7779;49.596;11.070;2022-10-01T00:13:50;2.67;;;2.47;;
15358;SDS011;7779;49.596;11.070;2022-10-01T00:16:19;4.03;;;2.63;;
15358;SDS011;7779;49.596;11.070;2022-10-01T00:18:48;3.27;;;2.63;;
15358;SDS011;7779;49.596;11.070;2022-10-01T00:21:25;3.87;;;3.07;;
15358;SDS011;7779;49.596;11.070;2022-10-01T00:24:02;5.30;;;2.77;;
15358;SDS011;7779;49.596;11.070;2022-10-01T00:26:33;3.10;;;2.80;;
15358;SDS011;7779;49.596;11.070;2022-10-01T00:29:03;3.33;;;2.97;;
15358;SDS011;7779;49.596;11.070;2022-10-01T00:31:33;3.00;;;2.70;;
15358;SDS011;7779;49.596;11.070;2022-10-01T00:34:00;3.67;;;2.87;;
15358;SDS011;7779;49.596;11.070;2022-10-01T00:36:27;3.83;;;2.90;;
15358;SDS011;7779;49.596;11.070;2022-10-01T00:38:55;4.43;;;3.20;;
15358;SDS011;7779;49.596;11.070;2022-10-01T00:41:24;4.13;;;3.10;;
15358;SDS011;7779;49.596;11.070;2022-10-01T00:43:55;3.93;;;3.13;;
15358;SDS011;7779;49.596;11.070;2022-10-01T00:46:36;3.70;;;2.67;;
15358;SDS011;7779;49.596;11.070;2022-10-01T00:49:11;6.00;;;3.27;;
15358;SDS011;7779;49.596;11.070;2022-10-01T00:51:46;4.87;;;3.17;;
15358;SDS011;7779;49.596;11.070;2022-10-01T00:54:19;3.83;;;3.00;;
15358;SDS011;7779;49.596;11.070;2022-10-01T00:57:03;4.53;;;3.37;;
15358;SDS011;7779;49.596;11.070;2022-10-01T00:59:31;4.13;;;2.90;;
15358;SDS011;7779;49.596;11.070;2022-10-01T01:01:59;4.83;;;3.20;;
15358;SDS011;7779;49.596;11.070;2022-10-01T01:04:25;4.07;;;3.33;;
15358;SDS011;7779;49.596;11.070;2022-10-01T01:06:56;3.87;;;2.73;;
15358;SDS011;7779;49.596;11.070;2022-10-01T01:09:27;4.23;;;3.27;;
15358;SDS011;7779;49.596;11.070;2022-10-01T01:15:13;3.50;;;3.00;;
15358;SDS011;7779;49.596;11.070;2022-10-01T01:20:43;3.30;;;3.00;;
15358;SDS011;7779;49.596;11.070;2022-10-01T01:26:31;4.50;;;2.90;;
15358;SDS011;7779;49.596;11.070;2022-10-01T01:32:18;3.40;;;3.07;;
15358;SDS011;7779;49.596;11.070;2022-10-01T01:34:52;3.97;;;3.60;;
15358;SDS011;7779;49.596;11.070;2022-10-01T01:37:26;3.47;;;3.13;;
15358;SDS011;7779;49.596;11.070;2022-10-01T01:39:59;4.27;;;3.20;;
15358;SDS011;7779;49.596;11.070;2022-10-01T01:42:29;4.23;;;3.60;;
15358;SDS011;7779;49.596;11.070;2022-10-01T01:45:02;4.33;;;3.73;;
15358;SDS011;7779;49.596;11.070;2022-10-01T01:47:34;4.13;;;3.50;;
15358;SDS011;7779;49.596;11.070;2022-10-01T01:50:04;3.73;;;3.43;;
15358;SDS011;7779;49.596;11.070;2022-10-01T01:52:32;4.60;;;4.00;;
15358;SDS011;7779;49.596;11.070;2022-10-01T01:54:58;4.40;;;3.77;;
15358;SDS011;7779;49.596;11.070;2022-10-01T01:57:31;4.53;;;4.00;;
15358;SDS011;7779;49.596;11.070;2022-10-01T02:00:00;4.40;;;3.50;;
15358;SDS011;7779;49.596;11.070;2022-10-01T02:02:32;4.40;;;3.60;;
15358;SDS011;7779;49.596;11.070;2022-10-01T02:05:12;4.37;;;3.87;;
15358;SDS011;7779;49.596;11.070;2022-10-01T02:10:54;5.50;;;3.53;;
15358;SDS011;7779;49.596;11.070;2022-10-01T02:22:21;4.53;;;2.87;;
15358;SDS011;7779;49.596;11.070;2022-10-01T02:25:02;3.87;;;2.93;;
15358;SDS011;7779;49.596;11.070;2022-10-01T02:27:42;4.60;;;3.50;;
15358;SDS011;7779;49.596;11.070;2022-10-01T02:30:17;4.27;;;3.40;;
15358;SDS011;7779;49.596;11.070;2022-10-01T02:32:44;3.87;;;3.40;;
15358;SDS011;7779;49.596;11.070;2022-10-01T02:35:15;6.07;;;3.40;;
15358;SDS011;7779;49.596;11.070;2022-10-01T02:37:44;3.60;;;3.30;;
15358;SDS011;7779;49.596;11.070;2022-10-01T02:40:17;4.50;;;3.30;;
15358;SDS011;7779;49.596;11.070;2022-10-01T02:42:51;4.53;;;3.43;;
15358;SDS011;7779;49.596;11.070;2022-10-01T02:45:26;5.40;;;3.70;;
15358;SDS011;7779;49.596;11.070;2022-10-01T02:48:03;4.27;;;3.87;;
15358;SDS011;7779;49.596;11.070;2022-10-01T02:50:46;5.97;;;4.87;;
15358;SDS011;7779;49.596;11.070;2022-10-01T02:53:24;5.37;;;4.87;;
15358;SDS011;7779;49.596;11.070;2022-10-01T02:55:51;5.67;;;4.63;;
15358;SDS011;7779;49.596;11.070;2022-10-01T02:58:19;6.80;;;4.63;;
15358;SDS011;7779;49.596;11.070;2022-10-01T03:00:45;5.93;;;4.90;;
15358;SDS011;7779;49.596;11.070;2022-10-01T03:03:11;5.63;;;5.00;;
15358;SDS011;7779;49.596;11.070;2022-10-01T03:05:37;5.37;;;4.60;;
15358;SDS011;7779;49.596;11.070;2022-10-01T03:08:03;6.13;;;4.70;;
15358;SDS011;7779;49.596;11.070;2022-10-01T03:10:28;5.67;;;4.40;;
15358;SDS011;7779;49.596;11.070;2022-10-01T03:12:54;6.57;;;5.00;;
15358;SDS011;7779;49.596;11.070;2022-10-01T03:15:20;5.03;;;4.47;;
15358;SDS011;7779;49.596;11.070;2022-10-01T03:17:49;4.87;;;4.13;;
15358;SDS011;7779;49.596;11.070;2022-10-01T03:20:19;6.67;;;5.63;;
15358;SDS011;7779;49.596;11.070;2022-10-01T03:22:46;8.70;;;5.23;;
15358;SDS011;7779;49.596;11.070;2022-10-01T03:25:15;5.70;;;5.10;;
15358;SDS011;7779;49.596;11.070;2022-10-01T03:27:41;7.80;;;5.40;;
15358;SDS011;7779;49.596;11.070;2022-10-01T03:30:07;6.80;;;5.20;;
15358;SDS011;7779;49.596;11.070;2022-10-01T03:32:34;6.53;;;5.30;;
15358;SDS011;7779;49.596;11.070;2022-10-01T03:35:00;6.70;;;5.80;;
15358;SDS011;7779;49.596;11.070;2022-10-01T03:37:26;7.10;;;5.30;;
15358;SDS011;7779;49.596;11.070;2022-10-01T03:39:52;7.43;;;5.70;;
15358;SDS011;7779;49.596;11.070;2022-10-01T03:42:17;6.43;;;5.10;;
15358;SDS011;7779;49.596;11.070;2022-10-01T03:44:43;6.60;;;5.53;;
15358;SDS011;7779;49.596;11.070;2022-10-01T03:47:09;6.43;;;5.17;;
15358;SDS011;7779;49.596;11.070;2022-10-01T03:49:35;7.27;;;5.40;;
15358;SDS011;7779;49.596;11.070;2022-10-01T03:52:02;6.57;;;5.37;;
15358;SDS011;7779;49.596;11.070;2022-10-01T03:54:30;5.87;;;4.93;;
15358;SDS011;7779;49.596;11.070;2022-10-01T03:56:56;5.83;;;5.13;;
15358;SDS011;7779;49.596;11.070;2022-10-01T03:59:22;7.63;;;5.77;;
15358;SDS011;7779;49.596;11.070;2022-10-01T04:01:50;7.10;;;5.53;;
15358;SDS011;7779;49.596;11.070;2022-10-01T04:04:15;5.57;;;4.90;;
15358;SDS011;7779;49.596;11.070;2022-10-01T04:06:41;6.20;;;5.40;;
15358;SDS011;7779;49.596;11.070;2022-10-01T04:09:07;7.23;;;5.70;;
15358;SDS011;7779;49.596;11.070;2022-10-01T04:11:34;6.40;;;5.10;;
15358;SDS011;7779;49.596;11.070;2022-10-01T04:14:00;5.83;;;5.13;;
15358;SDS011;7779;49.596;11.070;2022-10-01T04:16:26;6.00;;;5.27;;
15358;SDS011;7779;49.596;11.070;2022-10-01T04:18:53;6.80;;;5.40;;
15358;SDS011;7779;49.596;11.070;2022-10-01T04:21:19;8.67;;;5.80;;
15358;SDS011;7779;49.596;11.070;2022-10-01T04:23:45;7.37;;;5.60;;
15358;SDS011;7779;49.596;11.070;2022-10-01T04:26:10;7.53;;;5.97;;
15358;SDS011;7779;49.596;11.070;2022-10-01T04:28:36;9.90;;;6.60;;
15358;SDS011;7779;49.596;11.070;2022-10-01T04:31:02;7.67;;;6.10;;
15358;SDS011;7779;49.596;11.070;2022-10-01T04:33:46;9.00;;;6.07;;
15358;SDS011;7779;49.596;11.070;2022-10-01T04:36:12;9.07;;;7.07;;
15358;SDS011;7779;49.596;11.070;2022-10-01T04:38:38;8.20;;;6.67;;
15358;SDS011;7779;49.596;11.070;2022-10-01T04:41:04;8.10;;;6.67;;
15358;SDS011;7779;49.596;11.070;2022-10-01T04:43:30;8.47;;;7.07;;
15358;SDS011;7779;49.596;11.070;2022-10-01T04:45:56;9.57;;;7.17;;
15358;SDS011;7779;49.596;11.070;2022-10-01T04:48:22;7.90;;;6.83;;
15358;SDS011;7779;49.596;11.070;2022-10-01T04:50:48;8.20;;;7.00;;
15358;SDS011;7779;49.596;11.070;2022-10-01T04:53:14;8.13;;;6.90;;
15358;SDS011;7779;49.596;11.070;2022-10-01T04:55:40;8.77;;;7.53;;
15358;SDS011;7779;49.596;11.070;2022-10-01T04:58:07;10.43;;;8.33;;
15358;SDS011;7779;49.596;11.070;2022-10-01T05:00:33;8.93;;;7.57;;
15358;SDS011;7779;49.596;11.070;2022-10-01T05:02:59;11.57;;;8.10;;
15358;SDS011;7779;49.596;11.070;2022-10-01T05:05:24;9.33;;;8.20;;
15358;SDS011;7779;49.596;11.070;2022-10-01T05:07:52;8.73;;;7.63;;
15358;SDS011;7779;49.596;11.070;2022-10-01T05:10:19;9.47;;;6.97;;
15358;SDS011;7779;49.596;11.070;2022-10-01T05:12:47;9.07;;;7.03;;
15358;SDS011;7779;49.596;11.070;2022-10-01T05:15:14;7.70;;;6.53;;
15358;SDS011;7779;49.596;11.070;2022-10-01T05:17:41;7.30;;;6.03;;
15358;SDS011;7779;49.596;11.070;2022-10-01T05:20:08;8.83;;;6.70;;
15358;SDS011;7779;49.596;11.070;2022-10-01T05:22:41;7.70;;;6.43;;
15358;SDS011;7779;49.596;11.070;2022-10-01T05:25:08;6.87;;;5.80;;
15358;SDS011;7779;49.596;11.070;2022-10-01T05:27:33;6.20;;;5.60;;
15358;SDS011;7779;49.596;11.070;2022-10-01T05:30:02;6.73;;;6.03;;
15358;SDS011;7779;49.596;11.070;2022-10-01T05:32:33;7.93;;;6.70;;
15358;SDS011;7779;49.596;11.070;2022-10-01T05:35:00;9.47;;;6.77;;
15358;SDS011;7779;49.596;11.070;2022-10-01T05:37:25;6.93;;;6.23;;
15358;SDS011;7779;49.596;11.070;2022-10-01T05:39:51;7.37;;;6.40;;
15358;SDS011;7779;49.596;11.070;2022-10-01T05:42:17;9.80;;;6.73;;
15358;SDS011;7779;49.596;11.070;2022-10-01T05:44:43;8.20;;;7.03;;
15358;SDS011;7779;49.596;11.070;2022-10-01T05:47:13;8.03;;;7.00;;
15358;SDS011;7779;49.596;11.070;2022-10-01T05:49:39;8.20;;;7.07;;
15358;SDS011;7779;49.596;11.070;2022-10-01T05:52:11;6.93;;;6.23;;
15358;SDS011;7779;49.596;11.070;2022-10-01T05:54:39;8.30;;;7.03;;
15358;SDS011;7779;49.596;11.070;2022-10-01T05:57:06;9.37;;;6.53;;
15358;SDS011;7779;49.596;11.070;2022-10-01T05:59:32;7.10;;;6.13;;
15358;SDS011;7779;49.596;11.070;2022-10-01T06:01:59;7.63;;;6.73;;
15358;SDS011;7779;49.596;11.070;2022-10-01T06:04:25;11.23;;;6.50;;
15358;SDS011;7779;49.596;11.070;2022-10-01T06:06:52;8.90;;;6.53;;
15358;SDS011;7779;49.596;11.070;2022-10-01T06:09:18;9.00;;;7.43;;
15358;SDS011;7779;49.596;11.070;2022-10-01T06:11:44;9.23;;;7.80;;
15358;SDS011;7779;49.596;11.070;2022-10-01T06:14:10;8.23;;;7.43;;
15358;SDS011;7779;49.596;11.070;2022-10-01T06:16:36;8.87;;;7.33;;
15358;SDS011;7779;49.596;11.070;2022-10-01T06:19:02;9.20;;;7.27;;
15358;SDS011;7779;49.596;11.070;2022-10-01T06:21:28;8.37;;;7.03;;
15358;SDS011;7779;49.596;11.070;2022-10-01T06:23:54;9.07;;;7.67;;
15358;SDS011;7779;49.596;11.070;2022-10-01T06:26:20;9.23;;;7.37;;
15358;SDS011;7779;49.596;11.070;2022-10-01T06:28:47;10.23;;;7.83;;
15358;SDS011;7779;49.596;11.070;2022-10-01T06:31:14;9.47;;;7.83;;
15358;SDS011;7779;49.596;11.070;2022-10-01T06:33:41;9.60;;;8.20;;
15358;SDS011;7779;49.596;11.070;2022-10-01T06:36:07;9.57;;;8.47;;
15358;SDS011;7779;49.596;11.070;2022-10-01T06:38:33;9.80;;;8.17;;
15358;SDS011;7779;49.596;11.070;2022-10-01T06:40:59;10.63;;;8.47;;
15358;SDS011;7779;49.596;11.070;2022-10-01T06:43:28;10.20;;;9.10;;
15358;SDS011;7779;49.596;11.070;2022-10-01T06:45:55;11.13;;;9.63;;
15358;SDS011;7779;49.596;11.070;2022-10-01T06:48:24;9.53;;;8.50;;
15358;SDS011;7779;49.596;11.070;2022-10-01T06:50:50;10.23;;;8.63;;
15358;SDS011;7779;49.596;11.070;2022-10-01T06:53:17;9.43;;;8.07;;
15358;SDS011;7779;49.596;11.070;2022-10-01T06:55:43;9.27;;;7.93;;
15358;SDS011;7779;49.596;11.070;2022-10-01T06:58:14;8.83;;;7.90;;
15358;SDS011;7779;49.596;11.070;2022-10-01T07:00:43;9.53;;;8.43;;
15358;SDS011;7779;49.596;11.070;2022-10-01T07:03:16;11.23;;;9.10;;
15358;SDS011;7779;49.596;11.070;2022-10-01T07:05:45;10.57;;;9.07;;
15358;SDS011;7779;49.596;11.070;2022-10-01T07:08:12;8.67;;;7.47;;
15358;SDS011;7779;49.596;11.070;2022-10-01T07:10:39;10.07;;;7.60;;
15358;SDS011;7779;49.596;11.070;2022-10-01T07:13:06;9.37;;;8.37;;
15358;SDS011;7779;49.596;11.070;2022-10-01T07:15:37;9.23;;;8.23;;
15358;SDS011;7779;49.596;11.070;2022-10-01T07:18:04;8.17;;;7.23;;
15358;SDS011;7779;49.596;11.070;2022-10-01T07:20:30;9.97;;;7.77;;
15358;SDS011;7779;49.596;11.070;2022-10-01T07:22:59;9.43;;;7.53;;
15358;SDS011;7779;49.596;11.070;2022-10-01T07:25:26;8.60;;;7.70;;
15358;SDS011;7779;49.596;11.070;2022-10-01T07:27:58;10.53;;;7.47;;
15358;SDS011;7779;49.596;11.070;2022-10-01T07:30:28;8.40;;;7.50;;
15358;SDS011;7779;49.596;11.070;2022-10-01T07:32:55;8.97;;;7.80;;
15358;SDS011;7779;49.596;11.070;2022-10-01T07:35:20;7.83;;;7.03;;
15358;SDS011;7779;49.596;11.070;2022-10-01T07:37:47;8.63;;;7.47;;
15358;SDS011;7779;49.596;11.070;2022-10-01T07:40:15;8.23;;;7.27;;
15358;SDS011;7779;49.596;11.070;2022-10-01T07:42:42;7.73;;;6.93;;
15358;SDS011;7779;49.596;11.070;2022-10-01T07:45:18;7.77;;;6.93;;
15358;SDS011;7779;49.596;11.070;2022-10-01T07:50:22;8.10;;;6.80;;
15358;SDS011;7779;49.596;11.070;2022-10-01T07:52:51;7.67;;;6.87;;
15358;SDS011;7779;49.596;11.070;2022-10-01T07:55:18;7.13;;;6.47;;
15358;SDS011;7779;49.596;11.070;2022-10-01T07:57:49;7.07;;;6.37;;
15358;SDS011;7779;49.596;11.070;2022-10-01T08:00:17;8.03;;;6.57;;
15358;SDS011;7779;49.596;11.070;2022-10-01T08:02:47;7.67;;;6.87;;
15358;SDS011;7779;49.596;11.070;2022-10-01T08:05:16;9.33;;;7.30;;
15358;SDS011;7779;49.596;11.070;2022-10-01T08:07:44;8.57;;;6.50;;
15358;SDS011;7779;49.596;11.070;2022-10-01T08:10:12;8.23;;;7.37;;
15358;SDS011;7779;49.596;11.070;2022-10-01T08:12:40;7.83;;;7.03;;
15358;SDS011;7779;49.596;11.070;2022-10-01T08:15:15;7.80;;;7.00;;
15358;SDS011;7779;49.596;11.070;2022-10-01T08:17:42;7.33;;;6.47;;
15358;SDS011;7779;49.596;11.070;2022-10-01T08:20:11;8.20;;;6.57;;
15358;SDS011;7779;49.596;11.070;2022-10-01T08:22:37;7.37;;;6.43;;
15358;SDS011;7779;49.596;11.070;2022-10-01T08:25:04;7.43;;;6.07;;
15358;SDS011;7779;49.596;11.070;2022-10-01T08:27:30;7.47;;;6.40;;
15358;SDS011;7779;49.596;11.070;2022-10-01T08:29:56;7.03;;;6.10;;
15358;SDS011;7779;49.596;11.070;2022-10-01T08:32:22;7.53;;;6.70;;
15358;SDS011;7779;49.596;11.070;2022-10-01T08:34:49;7.47;;;6.70;;
15358;SDS011;7779;49.596;11.070;2022-10-01T08:37:17;7.57;;;6.83;;
15358;SDS011;7779;49.596;11.070;2022-10-01T08:39:42;7.27;;;6.57;;
15358;SDS011;7779;49.596;11.070;2022-10-01T08:45:08;7.60;;;5.97;;
15358;SDS011;7779;49.596;11.070;2022-10-01T08:47:42;6.53;;;5.60;;
15358;SDS011;7779;49.596;11.070;2022-10-01T08:53:04;6.40;;;5.80;;
15358;SDS011;7779;49.596;11.070;2022-10-01T08:55:39;5.90;;;5.30;;
15358;SDS011;7779;49.596;11.070;2022-10-01T08:58:09;6.10;;;5.00;;
15358;SDS011;7779;49.596;11.070;2022-10-01T09:00:44;5.83;;;5.00;;
15358;SDS011;7779;49.596;11.070;2022-10-01T09:03:13;6.23;;;5.63;;
15358;SDS011;7779;49.596;11.070;2022-10-01T09:08:36;6.53;;;5.83;;
15358;SDS011;7779;49.596;11.070;2022-10-01T09:11:14;6.17;;;5.30;;
15358;SDS011;7779;49.596;11.070;2022-10-01T09:17:26;5.73;;;4.30;;
15358;SDS011;7779;49.596;11.070;2022-10-01T09:20:34;4.90;;;4.40;;
15358;SDS011;7779;49.596;11.070;2022-10-01T09:25:52;4.73;;;4.23;;
15358;SDS011;7779;49.596;11.070;2022-10-01T09:28:20;4.53;;;4.13;;
15358;SDS011;7779;49.596;11.070;2022-10-01T09:33:32;4.70;;;4.10;;
15358;SDS011;7779;49.596;11.070;2022-10-01T09:36:07;4.20;;;3.80;;
15358;SDS011;7779;49.596;11.070;2022-10-01T09:39:14;4.30;;;3.90;;
15358;SDS011;7779;49.596;11.070;2022-10-01T09:42:12;4.23;;;3.67;;
15358;SDS011;7779;49.596;11.070;2022-10-01T09:44:38;4.60;;;4.10;;
15358;SDS011;7779;49.596;11.070;2022-10-01T09:47:12;7.53;;;5.20;;
15358;SDS011;7779;49.596;11.070;2022-10-01T09:49:42;5.63;;;4.47;;
15358;SDS011;7779;49.596;11.070;2022-10-01T09:52:14;5.97;;;4.90;;
15358;SDS011;7779;49.596;11.070;2022-10-01T09:54:56;5.23;;;4.30;;
15358;SDS011;7779;49.596;11.070;2022-10-01T09:57:42;5.13;;;4.40;;
15358;SDS011;7779;49.596;11.070;2022-10-01T10:00:18;6.00;;;4.33;;
15358;SDS011;7779;49.596;11.070;2022-10-01T10:02:47;5.53;;;4.13;;
15358;SDS011;7779;49.596;11.070;2022-10-01T10:05:17;4.70;;;4.00;;
15358;SDS011;7779;49.596;11.070;2022-10-01T10:10:37;4.83;;;3.80;;
15358;SDS011;7779;49.596;11.070;2022-10-01T10:13:24;3.93;;;3.57;;
15358;SDS011;7779;49.596;11.070;2022-10-01T10:16:00;4.43;;;3.70;;
15358;SDS011;7779;49.596;11.070;2022-10-01T10:18:39;3.70;;;3.40;;
15358;SDS011;7779;49.596;11.070;2022-10-01T10:21:15;3.80;;;3.40;;
15358;SDS011;7779;49.596;11.070;2022-10-01T10:26:19;4.00;;;3.40;;
15358;SDS011;7779;49.596;11.070;2022-10-01T10:28:52;4.27;;;3.87;;
15358;SDS011;7779;49.596;11.070;2022-10-01T10:31:21;6.90;;;3.80;;
15358;SDS011;7779;49.596;11.070;2022-10-01T10:33:53;4.47;;;3.50;;
15358;SDS011;7779;49.596;11.070;2022-10-01T10:36:27;3.83;;;2.93;;
15358;SDS011;7779;49.596;11.070;2022-10-01T10:38:56;4.73;;;3.60;;
15358;SDS011;7779;49.596;11.070;2022-10-01T10:41:23;3.30;;;3.00;;
15358;SDS011;7779;49.596;11.070;2022-10-01T10:43:52;4.47;;;3.03;;
15358;SDS011;7779;49.596;11.070;2022-10-01T10:46:27;3.60;;;3.30;;
15358;SDS011;7779;49.596;11.070;2022-10-01T10:49:02;3.90;;;3.10;;
15358;SDS011;7779;49.596;11.070;2022-10-01T10:51:47;5.83;;;4.60;;
15358;SDS011;7779;49.596;11.070;2022-10-01T10:59:24;3.53;;;3.20;;
15358;SDS011;7779;49.596;11.070;2022-10-01T11:01:50;3.00;;;2.80;;
15358;SDS011;7779;49.596;11.070;2022-10-01T11:04:19;2.60;;;2.30;;
15358;SDS011;7779;49.596;11.070;2022-10-01T11:07:03;2.53;;;2.33;;
15358;SDS011;7779;49.596;11.070;2022-10-01T11:09:36;2.50;;;2.30;;
15358;SDS011;7779;49.596;11.070;2022-10-01T11:12:12;2.53;;;2.33;;
15358;SDS011;7779;49.596;11.070;2022-10-01T11:30:14;2.07;;;1.60;;
15358;SDS011;7779;49.596;11.070;2022-10-01T11:33:09;1.93;;;1.67;;
15358;SDS011;7779;49.596;11.070;2022-10-01T11:36:28;1.63;;;1.50;;
15358;SDS011;7779;49.596;11.070;2022-10-01T11:39:05;1.77;;;1.40;;
15358;SDS011;7779;49.596;11.070;2022-10-01T11:41:49;2.00;;;1.60;;
15358;SDS011;7779;49.596;11.070;2022-10-01T11:44:33;2.30;;;1.60;;
15358;SDS011;7779;49.596;11.070;2022-10-01T11:47:18;1.70;;;1.50;;
15358;SDS011;7779;49.596;11.070;2022-10-01T11:55:39;1.93;;;1.50;;
15358;SDS011;7779;49.596;11.070;2022-10-01T12:01:48;2.27;;;1.80;;
15358;SDS011;7779;49.596;11.070;2022-10-01T12:04:43;3.20;;;2.07;;
15358;SDS011;7779;49.596;11.070;2022-10-01T12:15:53;1.77;;;1.50;;
15358;SDS011;7779;49.596;11.070;2022-10-01T12:18:35;1.70;;;1.60;;
15358;SDS011;7779;49.596;11.070;2022-10-01T12:21:21;1.50;;;1.40;;
15358;SDS011;7779;49.596;11.070;2022-10-01T12:23:55;2.47;;;1.80;;
15358;SDS011;7779;49.596;11.070;2022-10-01T12:32:16;2.17;;;1.57;;
15358;SDS011;7779;49.596;11.070;2022-10-01T12:35:21;3.37;;;2.70;;
15358;SDS011;7779;49.596;11.070;2022-10-01T12:46:52;2.03;;;1.70;;
15358;SDS011;7779;49.596;11.070;2022-10-01T12:49:40;1.50;;;1.40;;
15358;SDS011;7779;49.596;11.070;2022-10-01T12:58:56;1.33;;;1.03;;
15358;SDS011;7779;49.596;11.070;2022-10-01T13:04:43;0.80;;;0.80;;
15358;SDS011;7779;49.596;11.070;2022-10-01T13:07:55;1.10;;;1.00;;
15358;SDS011;7779;49.596;11.070;2022-10-01T13:10:53;1.20;;;0.80;;
15358;SDS011;7779;49.596;11.070;2022-10-01T13:13:35;1.00;;;0.90;;
15358;SDS011;7779;49.596;11.070;2022-10-01T13:16:05;1.10;;;1.00;;
15358;SDS011;7779;49.596;11.070;2022-10-01T13:19:48;1.87;;;1.23;;
15358;SDS011;7779;49.596;11.070;2022-10-01T13:30:17;1.03;;;0.93;;
15358;SDS011;7779;49.596;11.070;2022-10-01T13:32:49;1.47;;;0.90;;
15358;SDS011;7779;49.596;11.070;2022-10-01T13:37:53;0.73;;;0.73;;
15358;SDS011;7779;49.596;11.070;2022-10-01T13:42:58;1.17;;;0.80;;
15358;SDS011;7779;49.596;11.070;2022-10-01T13:45:38;1.50;;;0.90;;
15358;SDS011;7779;49.596;11.070;2022-10-01T13:53:34;2.23;;;0.90;;
15358;SDS011;7779;49.596;11.070;2022-10-01T13:56:25;0.83;;;0.60;;
15358;SDS011;7779;49.596;11.070;2022-10-01T13:58:55;1.97;;;0.70;;
15358;SDS011;7779;49.596;11.070;2022-10-01T14:03:52;0.70;;;0.70;;
15358;SDS011;7779;49.596;11.070;2022-10-01T14:06:55;0.53;;;0.43;;
15358;SDS011;7779;49.596;11.070;2022-10-01T14:09:28;0.80;;;0.70;;
15358;SDS011;7779;49.596;11.070;2022-10-01T14:12:01;1.47;;;0.70;;
15358;SDS011;7779;49.596;11.070;2022-10-01T14:14:57;0.70;;;0.70;;
15358;SDS011;7779;49.596;11.070;2022-10-01T14:17:55;1.93;;;0.50;;
15358;SDS011;7779;49.596;11.070;2022-10-01T14:20:27;0.70;;;0.57;;
15358;SDS011;7779;49.596;11.070;2022-10-01T14:23:14;0.87;;;0.63;;
15358;SDS011;7779;49.596;11.070;2022-10-01T14:25:52;1.73;;;0.60;;
15358;SDS011;7779;49.596;11.070;2022-10-01T14:34:22;0.87;;;0.87;;
15358;SDS011;7779;49.596;11.070;2022-10-01T14:37:04;0.73;;;0.70;;
15358;SDS011;7779;49.596;11.070;2022-10-01T14:39:32;0.83;;;0.80;;
15358;SDS011;7779;49.596;11.070;2022-10-01T14:42:05;0.70;;;0.60;;
15358;SDS011;7779;49.596;11.070;2022-10-01T14:44:38;1.73;;;0.67;;
15358;SDS011;7779;49.596;11.070;2022-10-01T14:47:24;0.50;;;0.50;;
15358;SDS011;7779;49.596;11.070;2022-10-01T14:49:53;1.10;;;0.80;;
15358;SDS011;7779;49.596;11.070;2022-10-01T14:52:25;0.80;;;0.70;;
15358;SDS011;7779;49.596;11.070;2022-10-01T15:00:00;0.97;;;0.60;;
15358;SDS011;7779;49.596;11.070;2022-10-01T15:02:33;1.03;;;0.83;;
15358;SDS011;7779;49.596;11.070;2022-10-01T15:05:26;2.87;;;0.90;;
15358;SDS011;7779;49.596;11.070;2022-10-01T15:07:57;1.63;;;1.03;;
15358;SDS011;7779;49.596;11.070;2022-10-01T15:10:34;1.30;;;1.20;;
15358;SDS011;7779;49.596;11.070;2022-10-01T15:13:00;1.77;;;1.30;;
15358;SDS011;7779;49.596;11.070;2022-10-01T15:15:32;1.87;;;1.20;;
15358;SDS011;7779;49.596;11.070;2022-10-01T15:18:05;2.13;;;1.53;;
15358;SDS011;7779;49.596;11.070;2022-10-01T15:20:34;1.43;;;1.20;;
15358;SDS011;7779;49.596;11.070;2022-10-01T15:23:00;4.27;;;1.50;;
15358;SDS011;7779;49.596;11.070;2022-10-01T15:25:29;2.17;;;1.63;;
15358;SDS011;7779;49.596;11.070;2022-10-01T15:27:56;3.50;;;1.40;;
15358;SDS011;7779;49.596;11.070;2022-10-01T15:30:23;1.53;;;1.20;;
15358;SDS011;7779;49.596;11.070;2022-10-01T15:32:51;2.03;;;1.30;;
15358;SDS011;7779;49.596;11.070;2022-10-01T15:35:18;2.27;;;1.50;;
15358;SDS011;7779;49.596;11.070;2022-10-01T15:37:47;2.43;;;1.33;;
15358;SDS011;7779;49.596;11.070;2022-10-01T15:43:08;2.50;;;1.40;;
15358;SDS011;7779;49.596;11.070;2022-10-01T15:46:01;2.00;;;1.43;;
15358;SDS011;7779;49.596;11.070;2022-10-01T15:48:40;1.90;;;1.40;;
15358;SDS011;7779;49.596;11.070;2022-10-01T15:51:14;2.00;;;1.57;;
15358;SDS011;7779;49.596;11.070;2022-10-01T15:53:51;3.67;;;2.10;;
15358;SDS011;7779;49.596;11.070;2022-10-01T15:56:26;2.07;;;1.47;;
15358;SDS011;7779;49.596;11.070;2022-10-01T15:58:56;2.93;;;1.50;;
15358;SDS011;7779;49.596;11.070;2022-10-01T16:01:37;2.50;;;1.50;;
15358;SDS011;7779;49.596;11.070;2022-10-01T16:04:08;1.83;;;1.60;;
15358;SDS011;7779;49.596;11.070;2022-10-01T16:06:41;2.90;;;1.00;;
15358;SDS011;7779;49.596;11.070;2022-10-01T16:09:17;2.07;;;0.90;;
15358;SDS011;7779;49.596;11.070;2022-10-01T16:11:58;2.73;;;1.17;;
15358;SDS011;7779;49.596;11.070;2022-10-01T16:17:35;1.33;;;0.90;;
15358;SDS011;7779;49.596;11.070;2022-10-01T16:22:41;1.33;;;0.90;;
15358;SDS011;7779;49.596;11.070;2022-10-01T16:27:47;1.23;;;0.80;;
15358;SDS011;7779;49.596;11.070;2022-10-01T16:30:26;1.87;;;1.10;;
15358;SDS011;7779;49.596;11.070;2022-10-01T16:32:57;1.47;;;0.83;;
15358;SDS011;7779;49.596;11.070;2022-10-01T16:35:33;1.30;;;1.00;;
15358;SDS011;7779;49.596;11.070;2022-10-01T16:38:00;1.60;;;0.97;;
15358;SDS011;7779;49.596;11.070;2022-10-01T16:40:31;2.00;;;1.10;;
15358;SDS011;7779;49.596;11.070;2022-10-01T16:43:03;1.67;;;1.10;;
15358;SDS011;7779;49.596;11.070;2022-10-01T16:45:38;1.30;;;1.00;;
15358;SDS011;7779;49.596;11.070;2022-10-01T16:48:13;1.27;;;0.90;;
15358;SDS011;7779;49.596;11.070;2022-10-01T16:50:43;2.20;;;1.50;;
15358;SDS011;7779;49.596;11.070;2022-10-01T16:53:11;5.80;;;1.40;;
15358;SDS011;7779;49.596;11.070;2022-10-01T16:55:40;2.93;;;1.80;;
15358;SDS011;7779;49.596;11.070;2022-10-01T16:58:07;3.47;;;2.30;;
15358;SDS011;7779;49.596;11.070;2022-10-01T17:00:33;3.47;;;2.10;;
15358;SDS011;7779;49.596;11.070;2022-10-01T17:03:01;6.40;;;4.77;;
15358;SDS011;7779;49.596;11.070;2022-10-01T17:05:34;9.83;;;6.17;;
15358;SDS011;7779;49.596;11.070;2022-10-01T17:08:01;5.00;;;3.50;;
15358;SDS011;7779;49.596;11.070;2022-10-01T17:10:36;4.37;;;3.03;;
15358;SDS011;7779;49.596;11.070;2022-10-01T17:13:10;4.13;;;2.60;;
15358;SDS011;7779;49.596;11.070;2022-10-01T17:15:37;4.80;;;2.20;;
15358;SDS011;7779;49.596;11.070;2022-10-01T17:18:03;3.30;;;1.77;;
15358;SDS011;7779;49.596;11.070;2022-10-01T17:20:29;2.27;;;1.40;;
15358;SDS011;7779;49.596;11.070;2022-10-01T17:22:56;2.97;;;1.50;;
15358;SDS011;7779;49.596;11.070;2022-10-01T17:25:23;1.20;;;1.00;;
15358;SDS011;7779;49.596;11.070;2022-10-01T17:27:56;1.80;;;1.17;;
15358;SDS011;7779;49.596;11.070;2022-10-01T17:30:24;3.33;;;1.80;;
15358;SDS011;7779;49.596;11.070;2022-10-01T17:32:53;2.13;;;1.23;;
15358;SDS011;7779;49.596;11.070;2022-10-01T17:35:20;4.30;;;1.23;;
15358;SDS011;7779;49.596;11.070;2022-10-01T17:37:46;1.47;;;1.00;;
15358;SDS011;7779;49.596;11.070;2022-10-01T17:40:12;1.30;;;1.00;;
15358;SDS011;7779;49.596;11.070;2022-10-01T17:42:40;1.90;;;1.10;;
15358;SDS011;7779;49.596;11.070;2022-10-01T17:45:07;1.10;;;0.70;;
15358;SDS011;7779;49.596;11.070;2022-10-01T17:47:35;1.47;;;1.10;;
15358;SDS011;7779;49.596;11.070;2022-10-01T17:50:06;3.27;;;0.87;;
15358;SDS011;7779;49.596;11.070;2022-10-01T17:52:32;0.90;;;0.77;;
15358;SDS011;7779;49.596;11.070;2022-10-01T17:54:58;0.80;;;0.70;;